sensor_id;sensor_type;location;lat;lon;timestamp;temperature;humidity
19755;DHT22;10036;47.812;9.274;2023-11-21T00:01:59;7.00;99.90
19755;DHT22;10036;47.812;9.274;2023-11-21T00:04:26;7.00;99.90
19755;DHT22;10036;47.812;9.274;2023-11-21T00:06:55;7.00;99.90
19755;DHT22;10036;47.812;9.274;2023-11-21T00:09:23;7.00;99.90
19755;DHT22;10036;47.812;9.274;2023-11-21T00:11:50;7.00;99.90
19755;DHT22;10036;47.812;9.274;2023-11-21T00:14:16;7.00;99.90
19755;DHT22;10036;47.812;9.274;2023-11-21T00:16:43;7.10;99.90
19755;DHT22;10036;47.812;9.274;2023-11-21T00:19:11;7.00;99.90
19755;DHT22;10036;47.812;9.274;2023-11-21T00:21:38;7.00;99.90
19755;DHT22;10036;47.812;9.274;2023-11-21T00:24:07;7.10;99.90
19755;DHT22;10036;47.812;9.274;2023-11-21T00:26:34;6.90;99.90
19755;DHT22;10036;47.812;9.274;2023-11-21T00:29:02;6.90;99.90
19755;DHT22;10036;47.812;9.274;2023-11-21T00:31:29;6.90;99.90
19755;DHT22;10036;47.812;9.274;2023-11-21T00:33:56;6.90;99.90
19755;DHT22;10036;47.812;9.274;2023-11-21T00:36:23;6.90;99.90
19755;DHT22;10036;47.812;9.274;2023-11-21T00:38:51;7.00;99.90
19755;DHT22;10036;47.812;9.274;2023-11-21T00:41:19;6.90;99.90
19755;DHT22;10036;47.812;9.274;2023-11-21T00:43:46;6.90;99.90
19755;DHT22;10036;47.812;9.274;2023-11-21T00:46:13;6.90;99.90
19755;DHT22;10036;47.812;9.274;2023-11-21T00:48:40;6.90;99.90
19755;DHT22;10036;47.812;9.274;2023-11-21T00:51:07;6.90;99.90
19755;DHT22;10036;47.812;9.274;2023-11-21T00:53:34;6.90;99.90
19755;DHT22;10036;47.812;9.274;2023-11-21T00:56:01;6.90;99.90
19755;DHT22;10036;47.812;9.274;2023-11-21T00:58:29;6.90;99.90
19755;DHT22;10036;47.812;9.274;2023-11-21T01:00:56;6.80;99.90
19755;DHT22;10036;47.812;9.274;2023-11-21T01:03:23;6.90;99.90
19755;DHT22;10036;47.812;9.274;2023-11-21T01:05:50;6.90;99.90
19755;DHT22;10036;47.812;9.274;2023-11-21T01:08:17;6.90;99.90
19755;DHT22;10036;47.812;9.274;2023-11-21T01:10:44;6.90;99.90
19755;DHT22;10036;47.812;9.274;2023-11-21T01:13:11;6.90;99.90
19755;DHT22;10036;47.812;9.274;2023-11-21T01:15:42;7.00;99.90
19755;DHT22;10036;47.812;9.274;2023-11-21T01:18:09;6.90;99.90
19755;DHT22;10036;47.812;9.274;2023-11-21T01:20:35;6.90;99.90
19755;DHT22;10036;47.812;9.274;2023-11-21T01:23:02;6.90;99.90
19755;DHT22;10036;47.812;9.274;2023-11-21T01:25:30;6.90;99.90
19755;DHT22;10036;47.812;9.274;2023-11-21T01:27:57;6.90;99.90
19755;DHT22;10036;47.812;9.274;2023-11-21T01:30:24;6.90;99.90
19755;DHT22;10036;47.812;9.274;2023-11-21T01:32:52;6.80;99.90
19755;DHT22;10036;47.812;9.274;2023-11-21T01:35:19;7.00;99.90
19755;DHT22;10036;47.812;9.274;2023-11-21T01:37:46;6.90;99.90
19755;DHT22;10036;47.812;9.274;2023-11-21T01:40:13;6.90;99.90
19755;DHT22;10036;47.812;9.274;2023-11-21T01:42:40;6.90;99.90
19755;DHT22;10036;47.812;9.274;2023-11-21T01:45:09;6.90;99.90
19755;DHT22;10036;47.812;9.274;2023-11-21T01:47:38;7.00;99.90
19755;DHT22;10036;47.812;9.274;2023-11-21T01:50:09;6.90;99.90
19755;DHT22;10036;47.812;9.274;2023-11-21T01:52:38;6.90;99.90
19755;DHT22;10036;47.812;9.274;2023-11-21T01:55:07;7.00;99.90
19755;DHT22;10036;47.812;9.274;2023-11-21T01:57:35;6.90;99.90
19755;DHT22;10036;47.812;9.274;2023-11-21T02:00:04;6.90;99.90
19755;DHT22;10036;47.812;9.274;2023-11-21T02:02:42;6.90;99.90
19755;DHT22;10036;47.812;9.274;2023-11-21T02:05:10;6.90;99.90
19755;DHT22;10036;47.812;9.274;2023-11-21T02:07:38;7.10;99.90
19755;DHT22;10036;47.812;9.274;2023-11-21T02:10:06;6.90;99.90
19755;DHT22;10036;47.812;9.274;2023-11-21T02:12:33;7.00;99.90
19755;DHT22;10036;47.812;9.274;2023-11-21T02:15:00;7.10;99.90
19755;DHT22;10036;47.812;9.274;2023-11-21T02:17:28;7.00;99.90
19755;DHT22;10036;47.812;9.274;2023-11-21T02:19:55;7.00;99.90
19755;DHT22;10036;47.812;9.274;2023-11-21T02:22:24;7.00;99.90
19755;DHT22;10036;47.812;9.274;2023-11-21T02:24:53;7.00;99.90
19755;DHT22;10036;47.812;9.274;2023-11-21T02:27:20;7.10;99.90
19755;DHT22;10036;47.812;9.274;2023-11-21T02:29:49;7.00;99.90
19755;DHT22;10036;47.812;9.274;2023-11-21T02:32:16;7.00;99.90
19755;DHT22;10036;47.812;9.274;2023-11-21T02:34:44;7.10;99.90
19755;DHT22;10036;47.812;9.274;2023-11-21T02:37:11;7.10;99.90
19755;DHT22;10036;47.812;9.274;2023-11-21T02:39:38;7.10;99.90
19755;DHT22;10036;47.812;9.274;2023-11-21T02:42:07;7.10;99.90
19755;DHT22;10036;47.812;9.274;2023-11-21T02:44:34;7.10;99.90
19755;DHT22;10036;47.812;9.274;2023-11-21T02:47:01;7.10;99.90
19755;DHT22;10036;47.812;9.274;2023-11-21T02:49:28;7.00;99.90
19755;DHT22;10036;47.812;9.274;2023-11-21T02:51:56;7.10;99.90
19755;DHT22;10036;47.812;9.274;2023-11-21T02:54:23;7.10;99.90
19755;DHT22;10036;47.812;9.274;2023-11-21T02:56:50;7.00;99.90
19755;DHT22;10036;47.812;9.274;2023-11-21T02:59:18;7.10;99.90
19755;DHT22;10036;47.812;9.274;2023-11-21T03:01:46;7.00;99.90
19755;DHT22;10036;47.812;9.274;2023-11-21T03:04:13;7.00;99.90
19755;DHT22;10036;47.812;9.274;2023-11-21T03:06:43;7.00;99.90
19755;DHT22;10036;47.812;9.274;2023-11-21T03:09:10;7.00;99.90
19755;DHT22;10036;47.812;9.274;2023-11-21T03:11:38;7.00;99.90
19755;DHT22;10036;47.812;9.274;2023-11-21T03:14:05;6.90;99.90
19755;DHT22;10036;47.812;9.274;2023-11-21T03:16:34;7.10;99.90
19755;DHT22;10036;47.812;9.274;2023-11-21T03:19:00;6.80;99.90
19755;DHT22;10036;47.812;9.274;2023-11-21T03:21:27;6.90;99.90
19755;DHT22;10036;47.812;9.274;2023-11-21T03:23:54;7.00;99.90
19755;DHT22;10036;47.812;9.274;2023-11-21T03:26:22;6.90;99.90
19755;DHT22;10036;47.812;9.274;2023-11-21T03:28:49;6.80;99.90
19755;DHT22;10036;47.812;9.274;2023-11-21T03:31:16;6.90;99.90
19755;DHT22;10036;47.812;9.274;2023-11-21T03:33:46;7.00;99.90
19755;DHT22;10036;47.812;9.274;2023-11-21T03:36:13;6.80;99.90
19755;DHT22;10036;47.812;9.274;2023-11-21T03:38:41;6.90;99.90
19755;DHT22;10036;47.812;9.274;2023-11-21T03:41:08;6.90;99.90
19755;DHT22;10036;47.812;9.274;2023-11-21T03:43:36;6.90;99.90
19755;DHT22;10036;47.812;9.274;2023-11-21T03:46:03;6.90;99.90
19755;DHT22;10036;47.812;9.274;2023-11-21T03:48:30;6.90;99.90
19755;DHT22;10036;47.812;9.274;2023-11-21T03:51:00;6.80;99.90
19755;DHT22;10036;47.812;9.274;2023-11-21T03:53:26;6.90;99.90
19755;DHT22;10036;47.812;9.274;2023-11-21T03:55:53;7.00;99.90
19755;DHT22;10036;47.812;9.274;2023-11-21T03:58:20;6.90;99.90
19755;DHT22;10036;47.812;9.274;2023-11-21T04:00:47;6.80;99.90
19755;DHT22;10036;47.812;9.274;2023-11-21T04:03:14;6.90;99.90
19755;DHT22;10036;47.812;9.274;2023-11-21T04:05:41;6.90;99.90
19755;DHT22;10036;47.812;9.274;2023-11-21T04:08:10;6.80;99.90
19755;DHT22;10036;47.812;9.274;2023-11-21T04:10:37;6.70;99.90
19755;DHT22;10036;47.812;9.274;2023-11-21T04:13:05;6.80;99.90
19755;DHT22;10036;47.812;9.274;2023-11-21T04:15:32;6.70;99.90
19755;DHT22;10036;47.812;9.274;2023-11-21T04:17:59;6.80;99.90
19755;DHT22;10036;47.812;9.274;2023-11-21T04:20:26;6.90;99.90
19755;DHT22;10036;47.812;9.274;2023-11-21T04:22:53;7.00;99.90
19755;DHT22;10036;47.812;9.274;2023-11-21T04:25:21;6.80;99.90
19755;DHT22;10036;47.812;9.274;2023-11-21T04:27:49;6.90;99.90
19755;DHT22;10036;47.812;9.274;2023-11-21T04:30:16;7.00;99.90
19755;DHT22;10036;47.812;9.274;2023-11-21T04:32:58;6.90;99.90
19755;DHT22;10036;47.812;9.274;2023-11-21T04:35:25;6.80;99.90
19755;DHT22;10036;47.812;9.274;2023-11-21T04:37:52;6.80;99.90
19755;DHT22;10036;47.812;9.274;2023-11-21T04:40:19;6.80;99.90
19755;DHT22;10036;47.812;9.274;2023-11-21T04:42:46;6.80;99.90
19755;DHT22;10036;47.812;9.274;2023-11-21T04:45:13;6.80;99.90
19755;DHT22;10036;47.812;9.274;2023-11-21T04:47:41;6.70;99.90
19755;DHT22;10036;47.812;9.274;2023-11-21T04:50:10;6.70;99.90
19755;DHT22;10036;47.812;9.274;2023-11-21T04:52:37;6.70;99.90
19755;DHT22;10036;47.812;9.274;2023-11-21T04:55:05;6.70;99.90
19755;DHT22;10036;47.812;9.274;2023-11-21T04:57:35;6.60;99.90
19755;DHT22;10036;47.812;9.274;2023-11-21T05:00:02;6.70;99.90
19755;DHT22;10036;47.812;9.274;2023-11-21T05:02:31;6.70;99.90
19755;DHT22;10036;47.812;9.274;2023-11-21T05:04:59;6.70;99.90
19755;DHT22;10036;47.812;9.274;2023-11-21T05:07:27;6.70;99.90
19755;DHT22;10036;47.812;9.274;2023-11-21T05:09:55;6.70;99.90
19755;DHT22;10036;47.812;9.274;2023-11-21T05:12:22;6.70;99.90
19755;DHT22;10036;47.812;9.274;2023-11-21T05:14:49;6.70;99.90
19755;DHT22;10036;47.812;9.274;2023-11-21T05:17:16;6.70;99.90
19755;DHT22;10036;47.812;9.274;2023-11-21T05:19:43;6.70;99.90
19755;DHT22;10036;47.812;9.274;2023-11-21T05:22:11;6.70;99.90
19755;DHT22;10036;47.812;9.274;2023-11-21T05:24:39;6.70;99.90
19755;DHT22;10036;47.812;9.274;2023-11-21T05:27:06;6.70;99.90
19755;DHT22;10036;47.812;9.274;2023-11-21T05:29:35;6.70;99.90
19755;DHT22;10036;47.812;9.274;2023-11-21T05:32:03;6.70;99.90
19755;DHT22;10036;47.812;9.274;2023-11-21T05:34:30;6.70;99.90
19755;DHT22;10036;47.812;9.274;2023-11-21T05:36:57;6.70;99.90
19755;DHT22;10036;47.812;9.274;2023-11-21T05:39:24;6.70;99.90
19755;DHT22;10036;47.812;9.274;2023-11-21T05:41:52;6.70;99.90
19755;DHT22;10036;47.812;9.274;2023-11-21T05:44:19;6.70;99.90
19755;DHT22;10036;47.812;9.274;2023-11-21T05:46:46;6.70;99.90
19755;DHT22;10036;47.812;9.274;2023-11-21T05:49:13;6.70;99.90
19755;DHT22;10036;47.812;9.274;2023-11-21T05:51:41;6.80;99.90
19755;DHT22;10036;47.812;9.274;2023-11-21T05:54:07;6.80;99.90
19755;DHT22;10036;47.812;9.274;2023-11-21T05:56:34;6.80;99.90
19755;DHT22;10036;47.812;9.274;2023-11-21T05:59:02;6.80;99.90
19755;DHT22;10036;47.812;9.274;2023-11-21T06:01:29;6.80;99.90
19755;DHT22;10036;47.812;9.274;2023-11-21T06:03:56;6.80;99.90
19755;DHT22;10036;47.812;9.274;2023-11-21T06:06:23;6.70;99.90
19755;DHT22;10036;47.812;9.274;2023-11-21T06:08:50;6.80;99.90
19755;DHT22;10036;47.812;9.274;2023-11-21T06:11:17;6.80;99.90
19755;DHT22;10036;47.812;9.274;2023-11-21T06:13:44;6.80;99.90
19755;DHT22;10036;47.812;9.274;2023-11-21T06:16:12;6.80;99.90
19755;DHT22;10036;47.812;9.274;2023-11-21T06:18:41;6.80;99.90
19755;DHT22;10036;47.812;9.274;2023-11-21T06:21:09;6.80;99.90
19755;DHT22;10036;47.812;9.274;2023-11-21T06:23:36;6.80;99.90
19755;DHT22;10036;47.812;9.274;2023-11-21T06:26:03;6.90;99.90
19755;DHT22;10036;47.812;9.274;2023-11-21T06:28:30;6.90;99.90
19755;DHT22;10036;47.812;9.274;2023-11-21T06:30:57;6.90;99.90
19755;DHT22;10036;47.812;9.274;2023-11-21T06:33:25;6.90;99.90
19755;DHT22;10036;47.812;9.274;2023-11-21T06:35:53;6.90;99.90
19755;DHT22;10036;47.812;9.274;2023-11-21T06:38:20;6.90;99.90
19755;DHT22;10036;47.812;9.274;2023-11-21T06:40:47;6.90;99.90
19755;DHT22;10036;47.812;9.274;2023-11-21T06:43:14;6.90;99.90
19755;DHT22;10036;47.812;9.274;2023-11-21T06:45:41;6.90;99.90
19755;DHT22;10036;47.812;9.274;2023-11-21T06:48:07;7.00;99.90
19755;DHT22;10036;47.812;9.274;2023-11-21T06:50:36;7.00;99.90
19755;DHT22;10036;47.812;9.274;2023-11-21T06:53:02;7.00;99.90
19755;DHT22;10036;47.812;9.274;2023-11-21T06:55:32;7.00;99.90
19755;DHT22;10036;47.812;9.274;2023-11-21T06:57:59;7.00;99.90
19755;DHT22;10036;47.812;9.274;2023-11-21T07:00:26;7.00;99.90
19755;DHT22;10036;47.812;9.274;2023-11-21T07:02:54;7.00;99.90
19755;DHT22;10036;47.812;9.274;2023-11-21T07:05:22;7.00;99.90
19755;DHT22;10036;47.812;9.274;2023-11-21T07:07:50;7.00;99.90
19755;DHT22;10036;47.812;9.274;2023-11-21T07:10:19;7.00;99.90
19755;DHT22;10036;47.812;9.274;2023-11-21T07:12:46;7.00;99.90
19755;DHT22;10036;47.812;9.274;2023-11-21T07:15:13;7.00;99.90
19755;DHT22;10036;47.812;9.274;2023-11-21T07:17:40;7.00;99.90
19755;DHT22;10036;47.812;9.274;2023-11-21T07:20:07;6.90;99.90
19755;DHT22;10036;47.812;9.274;2023-11-21T07:22:34;6.90;99.90
19755;DHT22;10036;47.812;9.274;2023-11-21T07:25:03;7.00;99.90
19755;DHT22;10036;47.812;9.274;2023-11-21T07:27:30;7.00;99.90
19755;DHT22;10036;47.812;9.274;2023-11-21T07:29:59;7.00;99.90
19755;DHT22;10036;47.812;9.274;2023-11-21T07:32:26;6.90;99.90
19755;DHT22;10036;47.812;9.274;2023-11-21T07:34:53;7.00;99.90
19755;DHT22;10036;47.812;9.274;2023-11-21T07:37:21;6.90;99.90
19755;DHT22;10036;47.812;9.274;2023-11-21T07:39:47;6.90;99.90
19755;DHT22;10036;47.812;9.274;2023-11-21T07:42:16;6.90;99.90
19755;DHT22;10036;47.812;9.274;2023-11-21T07:44:43;6.90;99.90
19755;DHT22;10036;47.812;9.274;2023-11-21T07:47:12;7.00;99.90
19755;DHT22;10036;47.812;9.274;2023-11-21T07:49:39;7.00;99.90
19755;DHT22;10036;47.812;9.274;2023-11-21T07:52:08;7.10;99.90
19755;DHT22;10036;47.812;9.274;2023-11-21T07:54:35;7.10;99.90
19755;DHT22;10036;47.812;9.274;2023-11-21T07:57:02;7.20;99.90
19755;DHT22;10036;47.812;9.274;2023-11-21T07:59:31;7.20;99.90
19755;DHT22;10036;47.812;9.274;2023-11-21T08:01:58;7.20;99.90
19755;DHT22;10036;47.812;9.274;2023-11-21T08:04:24;7.30;99.90
19755;DHT22;10036;47.812;9.274;2023-11-21T08:06:51;7.30;99.90
19755;DHT22;10036;47.812;9.274;2023-11-21T08:09:18;7.20;99.90
19755;DHT22;10036;47.812;9.274;2023-11-21T08:11:45;7.30;99.90
19755;DHT22;10036;47.812;9.274;2023-11-21T08:14:12;7.30;99.90
19755;DHT22;10036;47.812;9.274;2023-11-21T08:16:40;7.40;99.90
19755;DHT22;10036;47.812;9.274;2023-11-21T08:19:07;7.40;99.90
19755;DHT22;10036;47.812;9.274;2023-11-21T08:21:35;7.40;99.90
19755;DHT22;10036;47.812;9.274;2023-11-21T08:24:03;7.50;99.90
19755;DHT22;10036;47.812;9.274;2023-11-21T08:26:30;7.60;99.90
19755;DHT22;10036;47.812;9.274;2023-11-21T08:28:57;7.60;99.90
19755;DHT22;10036;47.812;9.274;2023-11-21T08:31:25;7.60;99.90
19755;DHT22;10036;47.812;9.274;2023-11-21T08:33:53;7.60;99.90
19755;DHT22;10036;47.812;9.274;2023-11-21T08:36:21;7.60;99.90
19755;DHT22;10036;47.812;9.274;2023-11-21T08:38:48;7.60;99.90
19755;DHT22;10036;47.812;9.274;2023-11-21T08:41:15;7.70;99.90
19755;DHT22;10036;47.812;9.274;2023-11-21T08:43:42;7.70;99.90
19755;DHT22;10036;47.812;9.274;2023-11-21T08:46:11;7.80;99.90
19755;DHT22;10036;47.812;9.274;2023-11-21T08:48:38;7.80;99.90
19755;DHT22;10036;47.812;9.274;2023-11-21T08:51:09;7.80;99.90
19755;DHT22;10036;47.812;9.274;2023-11-21T08:53:37;7.90;99.90
19755;DHT22;10036;47.812;9.274;2023-11-21T08:56:05;7.90;99.90
19755;DHT22;10036;47.812;9.274;2023-11-21T08:58:32;7.90;99.90
19755;DHT22;10036;47.812;9.274;2023-11-21T09:00:58;8.00;99.90
19755;DHT22;10036;47.812;9.274;2023-11-21T09:03:25;8.00;99.90
19755;DHT22;10036;47.812;9.274;2023-11-21T09:05:54;8.00;99.90
19755;DHT22;10036;47.812;9.274;2023-11-21T09:08:22;8.00;99.90
19755;DHT22;10036;47.812;9.274;2023-11-21T09:10:49;8.10;99.90
19755;DHT22;10036;47.812;9.274;2023-11-21T09:13:17;8.00;99.90
19755;DHT22;10036;47.812;9.274;2023-11-21T09:15:44;7.90;99.90
19755;DHT22;10036;47.812;9.274;2023-11-21T09:18:12;8.00;99.90
19755;DHT22;10036;47.812;9.274;2023-11-21T09:20:39;8.00;99.90
19755;DHT22;10036;47.812;9.274;2023-11-21T09:23:06;8.10;99.90
19755;DHT22;10036;47.812;9.274;2023-11-21T09:25:35;8.20;99.90
19755;DHT22;10036;47.812;9.274;2023-11-21T09:28:03;8.30;99.90
19755;DHT22;10036;47.812;9.274;2023-11-21T09:30:31;8.40;99.90
19755;DHT22;10036;47.812;9.274;2023-11-21T09:32:58;8.40;99.90
19755;DHT22;10036;47.812;9.274;2023-11-21T09:35:26;8.50;99.90
19755;DHT22;10036;47.812;9.274;2023-11-21T09:37:53;8.50;99.90
19755;DHT22;10036;47.812;9.274;2023-11-21T09:40:22;8.40;99.90
19755;DHT22;10036;47.812;9.274;2023-11-21T09:42:54;8.40;99.90
19755;DHT22;10036;47.812;9.274;2023-11-21T09:45:25;8.30;99.90
19755;DHT22;10036;47.812;9.274;2023-11-21T09:47:53;8.20;99.90
19755;DHT22;10036;47.812;9.274;2023-11-21T09:50:21;8.10;99.90
19755;DHT22;10036;47.812;9.274;2023-11-21T09:52:55;8.10;99.90
19755;DHT22;10036;47.812;9.274;2023-11-21T09:55:26;8.10;99.90
19755;DHT22;10036;47.812;9.274;2023-11-21T09:57:56;8.00;99.90
19755;DHT22;10036;47.812;9.274;2023-11-21T10:00:23;8.00;99.90
19755;DHT22;10036;47.812;9.274;2023-11-21T10:02:51;8.10;99.90
19755;DHT22;10036;47.812;9.274;2023-11-21T10:05:18;8.10;99.90
19755;DHT22;10036;47.812;9.274;2023-11-21T10:07:49;8.20;99.90
19755;DHT22;10036;47.812;9.274;2023-11-21T10:10:18;8.20;99.90
19755;DHT22;10036;47.812;9.274;2023-11-21T10:12:49;8.20;99.90
19755;DHT22;10036;47.812;9.274;2023-11-21T10:15:22;8.30;99.90
19755;DHT22;10036;47.812;9.274;2023-11-21T10:17:49;8.50;99.90
19755;DHT22;10036;47.812;9.274;2023-11-21T10:20:19;8.60;99.90
19755;DHT22;10036;47.812;9.274;2023-11-21T10:22:46;8.50;99.90
19755;DHT22;10036;47.812;9.274;2023-11-21T10:25:13;8.50;99.90
19755;DHT22;10036;47.812;9.274;2023-11-21T10:27:41;8.60;99.90
19755;DHT22;10036;47.812;9.274;2023-11-21T10:30:09;8.70;99.90
19755;DHT22;10036;47.812;9.274;2023-11-21T10:32:39;8.60;99.90
19755;DHT22;10036;47.812;9.274;2023-11-21T10:35:07;8.70;99.90
19755;DHT22;10036;47.812;9.274;2023-11-21T10:37:35;8.70;99.90
19755;DHT22;10036;47.812;9.274;2023-11-21T10:40:06;8.70;99.90
19755;DHT22;10036;47.812;9.274;2023-11-21T10:42:33;8.80;99.90
19755;DHT22;10036;47.812;9.274;2023-11-21T10:44:59;8.70;99.90
19755;DHT22;10036;47.812;9.274;2023-11-21T10:47:30;8.70;99.90
19755;DHT22;10036;47.812;9.274;2023-11-21T10:50:00;8.80;99.90
19755;DHT22;10036;47.812;9.274;2023-11-21T10:52:27;8.80;99.90
19755;DHT22;10036;47.812;9.274;2023-11-21T10:54:54;9.00;99.90
19755;DHT22;10036;47.812;9.274;2023-11-21T10:57:25;9.10;99.90
19755;DHT22;10036;47.812;9.274;2023-11-21T10:59:54;9.10;99.90
19755;DHT22;10036;47.812;9.274;2023-11-21T11:02:23;9.10;99.90
19755;DHT22;10036;47.812;9.274;2023-11-21T11:04:53;9.00;99.90
19755;DHT22;10036;47.812;9.274;2023-11-21T11:07:25;8.90;99.90
19755;DHT22;10036;47.812;9.274;2023-11-21T11:09:53;8.90;99.90
19755;DHT22;10036;47.812;9.274;2023-11-21T11:12:20;8.90;99.90
19755;DHT22;10036;47.812;9.274;2023-11-21T11:14:48;8.90;99.90
19755;DHT22;10036;47.812;9.274;2023-11-21T11:17:15;9.00;99.90
19755;DHT22;10036;47.812;9.274;2023-11-21T11:19:42;9.00;99.90
19755;DHT22;10036;47.812;9.274;2023-11-21T11:22:20;9.00;99.90
19755;DHT22;10036;47.812;9.274;2023-11-21T11:25:08;9.00;99.90
19755;DHT22;10036;47.812;9.274;2023-11-21T11:27:47;9.00;99.90
19755;DHT22;10036;47.812;9.274;2023-11-21T11:30:23;8.90;99.90
19755;DHT22;10036;47.812;9.274;2023-11-21T11:33:01;8.90;99.90
19755;DHT22;10036;47.812;9.274;2023-11-21T11:35:36;8.90;99.90
19755;DHT22;10036;47.812;9.274;2023-11-21T11:38:05;8.80;99.90
19755;DHT22;10036;47.812;9.274;2023-11-21T11:40:45;8.90;99.90
19755;DHT22;10036;47.812;9.274;2023-11-21T11:43:12;8.90;99.90
19755;DHT22;10036;47.812;9.274;2023-11-21T11:45:39;8.90;99.90
19755;DHT22;10036;47.812;9.274;2023-11-21T11:48:08;9.00;99.90
19755;DHT22;10036;47.812;9.274;2023-11-21T11:50:42;9.10;99.90
19755;DHT22;10036;47.812;9.274;2023-11-21T11:53:33;8.90;99.90
19755;DHT22;10036;47.812;9.274;2023-11-21T11:56:24;8.90;99.90
19755;DHT22;10036;47.812;9.274;2023-11-21T11:58:53;9.00;99.90
19755;DHT22;10036;47.812;9.274;2023-11-21T12:01:20;9.00;99.90
19755;DHT22;10036;47.812;9.274;2023-11-21T12:06:51;9.30;99.90
19755;DHT22;10036;47.812;9.274;2023-11-21T12:09:18;9.50;99.90
19755;DHT22;10036;47.812;9.274;2023-11-21T12:11:48;9.40;99.90
19755;DHT22;10036;47.812;9.274;2023-11-21T12:14:15;9.40;99.90
19755;DHT22;10036;47.812;9.274;2023-11-21T12:16:43;9.30;99.90
19755;DHT22;10036;47.812;9.274;2023-11-21T12:19:11;9.20;99.90
19755;DHT22;10036;47.812;9.274;2023-11-21T12:21:38;9.10;99.90
19755;DHT22;10036;47.812;9.274;2023-11-21T12:24:07;9.10;99.90
19755;DHT22;10036;47.812;9.274;2023-11-21T12:26:34;9.10;99.90
19755;DHT22;10036;47.812;9.274;2023-11-21T12:29:03;9.10;99.90
19755;DHT22;10036;47.812;9.274;2023-11-21T12:31:33;9.10;99.90
19755;DHT22;10036;47.812;9.274;2023-11-21T12:34:00;9.10;99.90
19755;DHT22;10036;47.812;9.274;2023-11-21T12:36:27;9.00;99.90
19755;DHT22;10036;47.812;9.274;2023-11-21T12:38:54;9.10;99.90
19755;DHT22;10036;47.812;9.274;2023-11-21T12:41:21;9.20;99.90
19755;DHT22;10036;47.812;9.274;2023-11-21T12:43:48;9.20;99.90
19755;DHT22;10036;47.812;9.274;2023-11-21T12:46:17;9.30;99.90
19755;DHT22;10036;47.812;9.274;2023-11-21T12:48:44;9.40;99.90
19755;DHT22;10036;47.812;9.274;2023-11-21T12:51:12;9.30;99.90
19755;DHT22;10036;47.812;9.274;2023-11-21T12:53:41;9.30;99.90
19755;DHT22;10036;47.812;9.274;2023-11-21T12:56:10;9.30;99.90
19755;DHT22;10036;47.812;9.274;2023-11-21T12:58:38;9.30;99.90
19755;DHT22;10036;47.812;9.274;2023-11-21T13:01:07;9.30;99.90
19755;DHT22;10036;47.812;9.274;2023-11-21T13:03:39;9.20;99.90
19755;DHT22;10036;47.812;9.274;2023-11-21T13:06:06;9.10;99.90
19755;DHT22;10036;47.812;9.274;2023-11-21T13:08:34;9.00;99.90
19755;DHT22;10036;47.812;9.274;2023-11-21T13:11:05;9.00;99.90
19755;DHT22;10036;47.812;9.274;2023-11-21T13:13:32;8.90;99.90
19755;DHT22;10036;47.812;9.274;2023-11-21T13:16:00;8.80;99.90
19755;DHT22;10036;47.812;9.274;2023-11-21T13:18:30;8.60;99.90
19755;DHT22;10036;47.812;9.274;2023-11-21T13:21:01;8.60;99.90
19755;DHT22;10036;47.812;9.274;2023-11-21T13:23:34;8.60;99.90
19755;DHT22;10036;47.812;9.274;2023-11-21T13:26:01;8.50;99.90
19755;DHT22;10036;47.812;9.274;2023-11-21T13:28:29;8.60;99.90
19755;DHT22;10036;47.812;9.274;2023-11-21T13:30:58;8.50;99.90
19755;DHT22;10036;47.812;9.274;2023-11-21T13:33:28;8.50;99.90
19755;DHT22;10036;47.812;9.274;2023-11-21T13:35:56;8.40;99.90
19755;DHT22;10036;47.812;9.274;2023-11-21T13:38:24;8.40;99.90
19755;DHT22;10036;47.812;9.274;2023-11-21T13:40:57;8.40;99.90
19755;DHT22;10036;47.812;9.274;2023-11-21T13:43:25;8.40;99.90
19755;DHT22;10036;47.812;9.274;2023-11-21T13:45:54;8.50;99.90
19755;DHT22;10036;47.812;9.274;2023-11-21T13:48:26;8.40;99.90
19755;DHT22;10036;47.812;9.274;2023-11-21T13:50:59;8.40;99.90
19755;DHT22;10036;47.812;9.274;2023-11-21T13:53:37;8.40;99.90
19755;DHT22;10036;47.812;9.274;2023-11-21T13:56:05;8.30;99.90
19755;DHT22;10036;47.812;9.274;2023-11-21T13:58:32;8.30;99.90
19755;DHT22;10036;47.812;9.274;2023-11-21T14:01:07;8.30;99.90
19755;DHT22;10036;47.812;9.274;2023-11-21T14:03:42;8.40;99.90
19755;DHT22;10036;47.812;9.274;2023-11-21T14:06:22;8.40;99.90
19755;DHT22;10036;47.812;9.274;2023-11-21T14:08:57;8.50;99.90
19755;DHT22;10036;47.812;9.274;2023-11-21T14:11:24;8.50;99.90
19755;DHT22;10036;47.812;9.274;2023-11-21T14:13:51;8.40;99.90
19755;DHT22;10036;47.812;9.274;2023-11-21T14:16:19;8.50;99.90
19755;DHT22;10036;47.812;9.274;2023-11-21T14:22:09;8.50;99.90
19755;DHT22;10036;47.812;9.274;2023-11-21T14:24:37;8.50;99.90
19755;DHT22;10036;47.812;9.274;2023-11-21T14:27:09;8.40;99.90
19755;DHT22;10036;47.812;9.274;2023-11-21T14:29:36;8.50;99.90
19755;DHT22;10036;47.812;9.274;2023-11-21T14:32:05;8.60;99.90
19755;DHT22;10036;47.812;9.274;2023-11-21T14:34:33;8.60;99.90
19755;DHT22;10036;47.812;9.274;2023-11-21T14:37:00;8.50;99.90
19755;DHT22;10036;47.812;9.274;2023-11-21T14:39:29;8.50;99.90
19755;DHT22;10036;47.812;9.274;2023-11-21T14:41:57;8.50;99.90
19755;DHT22;10036;47.812;9.274;2023-11-21T14:44:24;8.50;99.90
19755;DHT22;10036;47.812;9.274;2023-11-21T14:46:54;8.50;99.90
19755;DHT22;10036;47.812;9.274;2023-11-21T14:49:22;8.50;99.90
19755;DHT22;10036;47.812;9.274;2023-11-21T14:51:53;8.40;99.90
19755;DHT22;10036;47.812;9.274;2023-11-21T14:54:27;8.40;99.90
19755;DHT22;10036;47.812;9.274;2023-11-21T14:57:07;8.40;99.90
19755;DHT22;10036;47.812;9.274;2023-11-21T14:59:37;8.30;99.90
19755;DHT22;10036;47.812;9.274;2023-11-21T15:02:03;8.30;99.90
19755;DHT22;10036;47.812;9.274;2023-11-21T15:04:41;8.30;99.90
19755;DHT22;10036;47.812;9.274;2023-11-21T15:07:08;8.20;99.90
19755;DHT22;10036;47.812;9.274;2023-11-21T15:09:36;8.20;99.90
19755;DHT22;10036;47.812;9.274;2023-11-21T15:12:07;8.20;99.90
19755;DHT22;10036;47.812;9.274;2023-11-21T15:14:44;8.10;99.90
19755;DHT22;10036;47.812;9.274;2023-11-21T15:17:14;8.10;99.90
19755;DHT22;10036;47.812;9.274;2023-11-21T15:19:48;8.10;99.90
19755;DHT22;10036;47.812;9.274;2023-11-21T15:22:15;8.10;99.90
19755;DHT22;10036;47.812;9.274;2023-11-21T15:24:42;8.10;99.90
19755;DHT22;10036;47.812;9.274;2023-11-21T15:27:14;8.10;99.90
19755;DHT22;10036;47.812;9.274;2023-11-21T15:29:41;8.10;99.90
19755;DHT22;10036;47.812;9.274;2023-11-21T15:32:09;8.10;99.90
19755;DHT22;10036;47.812;9.274;2023-11-21T15:34:37;8.00;99.90
19755;DHT22;10036;47.812;9.274;2023-11-21T15:37:06;8.00;99.90
19755;DHT22;10036;47.812;9.274;2023-11-21T15:39:36;8.00;99.90
19755;DHT22;10036;47.812;9.274;2023-11-21T15:42:04;8.00;99.90
19755;DHT22;10036;47.812;9.274;2023-11-21T15:44:34;8.00;99.90
19755;DHT22;10036;47.812;9.274;2023-11-21T15:47:01;8.00;99.90
19755;DHT22;10036;47.812;9.274;2023-11-21T15:49:29;8.00;99.90
19755;DHT22;10036;47.812;9.274;2023-11-21T15:51:59;8.00;99.90
19755;DHT22;10036;47.812;9.274;2023-11-21T15:54:27;7.90;99.90
19755;DHT22;10036;47.812;9.274;2023-11-21T15:56:55;7.90;99.90
19755;DHT22;10036;47.812;9.274;2023-11-21T15:59:23;8.00;99.90